OPLA/LHE METAR and TAF weather

Enter ICAO airport designator
Station Type Date Time Source
OPLA METAR 2022/07/03 14:55 UTC NOAA

OPLA 031455Z 11007KT 6000 FEW040 SCT100 32/24 Q0998 NOSIG RMK QFE971 A29.49


Station Type Date Time Source
OPLA Decoded METAR 2022/07/03 14:55 UTC NOAA

Lahore Airport, Pakistan (OPLA) 31-31N 074-24E 217M
Jul 03, 2022 - 10:55 AM EDT / 2022.07.03 1455 UTC
Wind: from the ESE (110 degrees) at 8 MPH (7 KT):0
Visibility: 3 mile(s):0
Sky conditions: partly cloudy
Temperature: 89 F (32 C)
Heat index: 98.4 F (36.9 C):1
Dew Point: 75 F (24 C)
Relative Humidity: 62%
Pressure (altimeter): 29.47 in. Hg (0998 hPa)
ob: OPLA 031455Z 11007KT 6000 FEW040 SCT100 32/24 Q0998 NOSIG RMK QFE971 A29.49
cycle: 15

Station Type Date Time Source
OPLA TAF 2022/07/03 12:03 UTC NOAA

TAF OPLA 030945Z 0312/0418 12010KT 4000 FU SCT040 SCT100 TX33/0410Z TN26/0400Z
TEMPO 0322/0404 34015G35KT 1500 TSRA FEW030CB SCT040 BKN100 PROB40
TEMPO 0408/0412 13015G30KT 1500 TSRA FEW030CB //END PART 01 01//

Example: see airport list